Time;durP1;ratioP1;P1;durP2;ratioP2;P2;SDS_P1;SDS_P2;PMS_P1;PMS_P2;Temp;Humidity;BMP_temperature;BMP_pressure;BME280_temperature;BME280_humidity;BME280_pressure;Samples;Min_cycle;Max_cycle;Signal;HPM_P1;HPM_P2
2023/04/24 00:00:47;;;;;;;0.40;0.40;;;9.50;98.40;;;;;;2083394;28;20259;-65
2023/04/24 00:01:50;;;;;;;0.30;0.30;;;9.50;98.20;;;;;;2091501;28;20240;-68
2023/04/24 00:02:51;;;;;;;0.30;0.30;;;9.50;98.30;;;;;;2083409;28;20234;-65
2023/04/24 00:03:51;;;;;;;0.30;0.30;;;9.50;98.40;;;;;;2076636;28;20307;-65
2023/04/24 00:04:52;;;;;;;0.20;0.20;;;9.50;98.90;;;;;;2093834;28;20227;-65
2023/04/24 00:05:58;;;;;;;0.30;0.30;;;9.50;98.70;;;;;;2084882;28;20232;-67
2023/04/24 00:06:59;;;;;;;0.40;0.40;;;9.60;98.60;;;;;;2082207;28;20261;-66
2023/04/24 00:08:00;;;;;;;0.30;0.30;;;9.50;98.60;;;;;;2093602;28;20225;-66
2023/04/24 00:09:03;;;;;;;0.30;0.30;;;9.60;98.70;;;;;;2083624;28;20240;-67
2023/04/24 00:10:06;;;;;;;0.30;0.30;;;9.60;98.60;;;;;;2077014;28;20187;-66
2023/04/24 00:11:09;;;;;;;0.40;0.40;;;9.50;98.40;;;;;;2084636;28;20195;-65
2023/04/24 00:12:09;;;;;;;0.30;0.30;;;9.50;98.60;;;;;;2081021;28;20658;-65
2023/04/24 00:13:11;;;;;;;0.30;0.30;;;9.60;98.40;;;;;;2076598;28;20189;-65
2023/04/24 00:14:11;;;;;;;0.30;0.30;;;9.60;98.30;;;;;;2084470;28;20187;-67
2023/04/24 00:15:13;;;;;;;0.30;0.30;;;9.50;98.10;;;;;;2093419;28;20627;-67
2023/04/24 00:16:14;;;;;;;0.30;0.30;;;9.50;98.30;;;;;;2093443;28;20200;-65
2023/04/24 00:17:15;;;;;;;0.80;0.80;;;9.50;98.40;;;;;;2075773;28;20213;-66
2023/04/24 00:18:16;;;;;;;0.30;0.30;;;9.40;98.60;;;;;;2060642;28;20195;-65
2023/04/24 00:19:17;;;;;;;0.30;0.30;;;9.30;98.70;;;;;;2068818;28;20296;-66
2023/04/24 00:20:18;;;;;;;0.30;0.30;;;9.20;99.00;;;;;;2075765;28;20697;-67
2023/04/24 00:21:20;;;;;;;0.35;0.35;;;9.20;99.20;;;;;;2076869;28;20287;-68
2023/04/24 00:22:21;;;;;;;0.30;0.30;;;9.20;99.40;;;;;;2085141;28;20307;-67
2023/04/24 00:23:21;;;;;;;0.40;0.40;;;9.40;99.30;;;;;;2085019;28;20801;-67
2023/04/24 00:24:23;;;;;;;0.27;0.27;;;9.40;99.10;;;;;;2076855;28;20282;-66
2023/04/24 00:25:24;;;;;;;0.40;0.40;;;9.50;98.80;;;;;;2067989;28;20229;-66
2023/04/24 00:26:25;;;;;;;0.30;0.30;;;9.50;98.70;;;;;;2076545;28;20263;-68
2023/04/24 00:27:25;;;;;;;0.30;0.30;;;9.50;98.70;;;;;;2075817;28;20272;-66
2023/04/24 00:28:27;;;;;;;0.30;0.30;;;9.60;98.70;;;;;;2076317;28;20469;-66
2023/04/24 00:29:30;;;;;;;0.30;0.30;;;9.50;98.60;;;;;;2084108;28;20228;-66
2023/04/24 00:30:31;;;;;;;0.30;0.30;;;9.50;98.60;;;;;;2084623;28;20636;-67
2023/04/24 00:31:34;;;;;;;0.30;0.30;;;9.60;98.60;;;;;;2084158;28;20267;-65
2023/04/24 00:32:35;;;;;;;0.30;0.30;;;9.50;98.70;;;;;;2085014;28;20232;-65
2023/04/24 00:33:37;;;;;;;0.20;0.20;;;9.60;98.70;;;;;;2093502;28;20268;-66
2023/04/24 00:34:39;;;;;;;0.30;0.30;;;9.60;98.60;;;;;;2092307;28;20258;-68
2023/04/24 00:35:40;;;;;;;0.30;0.30;;;9.60;98.60;;;;;;2093231;28;20317;-65
2023/04/24 00:36:43;;;;;;;0.30;0.30;;;9.50;98.90;;;;;;2093065;28;20242;-66
2023/04/24 00:37:45;;;;;;;0.30;0.30;;;9.40;99.10;;;;;;2088692;28;20223;-66
2023/04/24 00:38:46;;;;;;;0.30;0.30;;;9.40;99.20;;;;;;2093136;28;20693;-66
2023/04/24 00:39:47;;;;;;;0.33;0.33;;;9.30;99.60;;;;;;2084411;28;20230;-65
2023/04/24 00:40:50;;;;;;;0.97;0.97;;;9.30;99.80;;;;;;2067729;28;20237;-66
2023/04/24 00:41:52;;;;;;;0.30;0.30;;;9.30;99.90;;;;;;2068514;28;20269;-66
2023/04/24 00:42:53;;;;;;;0.30;0.30;;;9.40;99.90;;;;;;2076642;28;20296;-66
2023/04/24 00:43:53;;;;;;;0.30;0.30;;;9.40;99.70;;;;;;2076829;28;20229;-65
2023/04/24 00:44:55;;;;;;;0.30;0.30;;;9.40;99.50;;;;;;2068709;28;20283;-67
2023/04/24 00:46:01;;;;;;;0.30;0.30;;;9.40;99.30;;;;;;2068564;28;20229;-65
2023/04/24 00:47:03;;;;;;;0.22;0.22;;;9.50;99.40;;;;;;2077110;28;20228;-65
2023/04/24 00:48:05;;;;;;;0.20;0.20;;;9.40;99.40;;;;;;2093019;28;20191;-65
2023/04/24 00:49:06;;;;;;;0.32;0.32;;;9.40;99.10;;;;;;2084594;28;20251;-65
2023/04/24 00:50:08;;;;;;;0.30;0.30;;;9.50;99.30;;;;;;2091143;28;20177;-66
2023/04/24 00:51:09;;;;;;;0.30;0.30;;;9.40;99.50;;;;;;2081238;28;20188;-67
2023/04/24 00:52:10;;;;;;;0.30;0.30;;;9.40;99.60;;;;;;2079939;28;20189;-65
2023/04/24 00:53:11;;;;;;;0.30;0.30;;;9.30;99.90;;;;;;2083438;28;20184;-66
2023/04/24 00:54:13;;;;;;;0.30;0.30;;;9.30;99.90;;;;;;2084242;28;20235;-66
2023/04/24 00:55:14;;;;;;;0.38;0.38;;;9.40;99.90;;;;;;2084238;28;20193;-66
2023/04/24 00:56:15;;;;;;;0.30;0.30;;;9.40;99.90;;;;;;2076372;28;20201;-65
2023/04/24 00:57:17;;;;;;;0.30;0.30;;;9.40;99.90;;;;;;2076206;28;20566;-65
2023/04/24 00:58:18;;;;;;;1.25;1.25;;;9.30;99.90;;;;;;2075094;28;20189;-65
2023/04/24 00:59:19;;;;;;;0.30;0.30;;;9.20;99.90;;;;;;2067788;28;20614;-67
2023/04/24 01:00:22;;;;;;;0.30;0.30;;;9.10;99.90;;;;;;2076360;28;20220;-66
2023/04/24 01:01:22;;;;;;;0.20;0.20;;;9.10;99.90;;;;;;2083102;28;20240;-66
2023/04/24 01:02:24;;;;;;;0.30;0.30;;;9.10;99.90;;;;;;2076277;28;20296;-65
2023/04/24 01:03:31;;;;;;;0.30;0.30;;;9.20;99.90;;;;;;2085121;28;20290;-65
2023/04/24 01:04:32;;;;;;;0.40;0.40;;;9.20;99.90;;;;;;2092937;28;20312;-65
2023/04/24 01:05:33;;;;;;;0.30;0.30;;;9.20;99.90;;;;;;2091952;28;20587;-66
2023/04/24 01:06:39;;;;;;;0.38;0.38;;;9.10;99.90;;;;;;2084760;28;20255;-65
2023/04/24 01:07:45;;;;;;;0.40;0.40;;;9.10;99.90;;;;;;2072597;28;20232;-65
2023/04/24 01:08:47;;;;;;;0.30;0.30;;;9.20;99.90;;;;;;2084785;28;20259;-66
2023/04/24 01:09:50;;;;;;;0.30;0.30;;;9.20;99.90;;;;;;2093114;28;20263;-66
2023/04/24 01:10:52;;;;;;;0.30;0.30;;;9.10;99.90;;;;;;2093020;28;20242;-66
2023/04/24 01:11:54;;;;;;;0.20;0.20;;;9.20;99.90;;;;;;2083630;28;20628;-66
2023/04/24 01:12:55;;;;;;;0.20;0.20;;;9.10;99.90;;;;;;2076343;28;20860;-67
2023/04/24 01:13:58;;;;;;;0.30;0.30;;;9.10;99.90;;;;;;2084299;28;20283;-65
2023/04/24 01:14:59;;;;;;;0.30;0.30;;;9.10;99.90;;;;;;2084509;28;20324;-66
2023/04/24 01:16:03;;;;;;;0.50;0.50;;;9.10;99.90;;;;;;2075946;28;20232;-65
2023/04/24 01:17:04;;;;;;;0.30;0.30;;;9.10;99.90;;;;;;2083704;28;20277;-64
2023/04/24 01:18:05;;;;;;;0.30;0.30;;;9.00;99.90;;;;;;2093405;28;20265;-65
2023/04/24 01:19:06;;;;;;;0.30;0.30;;;9.00;99.90;;;;;;2092826;28;20210;-66
2023/04/24 01:20:10;;;;;;;0.30;0.30;;;9.00;99.90;;;;;;2092462;28;20179;-65
2023/04/24 01:21:16;;;;;;;0.30;0.30;;;9.10;99.90;;;;;;2075825;28;20235;-65
2023/04/24 01:22:18;;;;;;;30.42;1.50;;;9.10;99.90;;;;;;2077062;28;20237;-68
2023/04/24 01:23:19;;;;;;;0.40;0.40;;;9.00;99.90;;;;;;2093321;28;20179;-66
2023/04/24 01:24:20;;;;;;;0.40;0.40;;;9.10;99.90;;;;;;2083804;28;20345;-65
2023/04/24 01:25:22;;;;;;;0.30;0.30;;;9.10;99.90;;;;;;2086836;28;20702;-65
2023/04/24 01:26:25;;;;;;;0.30;0.30;;;9.10;99.90;;;;;;2082697;28;20216;-68
2023/04/24 01:27:26;;;;;;;0.30;0.30;;;9.20;99.90;;;;;;2080718;28;20656;-66
2023/04/24 01:28:27;;;;;;;0.28;0.28;;;9.30;99.90;;;;;;2083495;28;20310;-66
2023/04/24 01:29:29;;;;;;;0.30;0.30;;;9.30;99.90;;;;;;2080569;28;20229;-66
2023/04/24 01:30:31;;;;;;;0.30;0.30;;;9.20;99.90;;;;;;2088310;28;20636;-66
2023/04/24 01:31:33;;;;;;;0.30;0.30;;;9.20;99.90;;;;;;2096438;28;20310;-66
2023/04/24 01:32:34;;;;;;;0.20;0.20;;;9.20;99.90;;;;;;2079928;28;20641;-66
2023/04/24 01:33:36;;;;;;;0.30;0.30;;;9.20;99.90;;;;;;2079104;28;20702;-66
2023/04/24 01:34:38;;;;;;;0.30;0.30;;;9.10;99.90;;;;;;2096849;28;20281;-66
2023/04/24 01:35:41;;;;;;;0.25;0.25;;;9.10;99.90;;;;;;2088078;28;20235;-66
2023/04/24 01:36:45;;;;;;;0.25;0.25;;;9.10;99.90;;;;;;2086608;28;20335;-66
2023/04/24 01:37:46;;;;;;;0.40;0.40;;;9.10;99.90;;;;;;2083777;28;20231;-65
2023/04/24 01:38:48;;;;;;;0.30;0.30;;;9.00;99.90;;;;;;2075204;28;20232;-66
2023/04/24 01:39:49;;;;;;;0.40;0.40;;;9.00;99.90;;;;;;2084361;28;20228;-66
2023/04/24 01:40:51;;;;;;;0.20;0.20;;;8.90;99.90;;;;;;2089249;28;20223;-66
2023/04/24 01:41:52;;;;;;;0.30;0.30;;;8.80;99.90;;;;;;2083781;28;20241;-66
2023/04/24 01:42:53;;;;;;;0.30;0.30;;;8.80;99.90;;;;;;2075117;28;20225;-66
2023/04/24 01:43:54;;;;;;;0.30;0.30;;;8.70;99.90;;;;;;2084244;28;20248;-68
2023/04/24 01:44:55;;;;;;;0.30;0.30;;;8.70;99.90;;;;;;2084170;28;20228;-66
2023/04/24 01:45:56;;;;;;;0.37;0.37;;;8.70;99.90;;;;;;2076135;28;20676;-69
2023/04/24 01:46:57;;;;;;;0.30;0.30;;;8.70;99.90;;;;;;2083999;28;20646;-66
2023/04/24 01:48:00;;;;;;;0.30;0.30;;;8.70;99.90;;;;;;2071901;28;20229;-67
2023/04/24 01:49:01;;;;;;;0.30;0.30;;;8.60;99.90;;;;;;2075320;28;20239;-68
2023/04/24 01:50:04;;;;;;;0.45;0.45;;;8.50;99.90;;;;;;2080710;28;20261;-68
2023/04/24 01:51:05;;;;;;;0.30;0.30;;;8.50;99.90;;;;;;2083633;28;20200;-66
2023/04/24 01:52:06;;;;;;;0.40;0.40;;;8.50;99.90;;;;;;2092914;28;20693;-67
2023/04/24 01:53:08;;;;;;;0.30;0.30;;;8.50;99.90;;;;;;2082479;28;20189;-65
2023/04/24 01:54:10;;;;;;;0.30;0.30;;;8.40;99.90;;;;;;2084392;28;20746;-65
2023/04/24 01:55:12;;;;;;;0.30;0.30;;;8.40;99.90;;;;;;2092124;28;20730;-65
2023/04/24 01:56:14;;;;;;;0.30;0.30;;;8.30;99.90;;;;;;2093616;28;20271;-66
2023/04/24 01:57:16;;;;;;;0.20;0.20;;;8.30;99.90;;;;;;2083777;28;20203;-65
2023/04/24 01:58:16;;;;;;;0.30;0.30;;;8.30;99.90;;;;;;2084797;28;20180;-65
2023/04/24 01:59:18;;;;;;;0.30;0.30;;;8.30;99.90;;;;;;2092804;28;21149;-66
2023/04/24 02:00:20;;;;;;;0.30;0.30;;;8.20;99.90;;;;;;2075412;28;20185;-66
2023/04/24 02:01:25;;;;;;;0.30;0.30;;;8.20;99.90;;;;;;2075980;28;20224;-66
2023/04/24 02:02:29;;;;;;;0.30;0.30;;;8.30;99.90;;;;;;2076007;28;20602;-66
2023/04/24 02:03:30;;;;;;;0.30;0.30;;;8.30;99.90;;;;;;2083827;28;20235;-66
2023/04/24 02:04:31;;;;;;;0.30;0.30;;;8.30;99.90;;;;;;2083943;28;20268;-66
2023/04/24 02:05:34;;;;;;;0.82;0.82;;;8.30;99.90;;;;;;2075801;28;20731;-66
2023/04/24 02:06:35;;;;;;;0.30;0.30;;;8.40;99.90;;;;;;2078703;28;20258;-65
2023/04/24 02:07:36;;;;;;;0.30;0.30;;;8.30;99.90;;;;;;2083587;28;20630;-66
2023/04/24 02:08:40;;;;;;;0.30;0.30;;;8.40;99.90;;;;;;2092409;28;20239;-69
2023/04/24 02:09:41;;;;;;;0.20;0.20;;;8.30;99.90;;;;;;2083670;28;20594;-66
2023/04/24 02:10:41;;;;;;;0.25;0.25;;;8.30;99.90;;;;;;2076133;28;20318;-66
2023/04/24 02:11:42;;;;;;;0.60;0.60;;;8.30;99.90;;;;;;2075983;28;20235;-66
2023/04/24 02:12:44;;;;;;;0.27;0.27;;;8.30;99.90;;;;;;2084232;28;20228;-66
2023/04/24 02:13:45;;;;;;;0.30;0.30;;;8.20;99.90;;;;;;2071854;28;20339;-65
2023/04/24 02:14:45;;;;;;;0.30;0.30;;;8.20;99.90;;;;;;2092262;28;20220;-65
2023/04/24 02:15:46;;;;;;;0.30;0.30;;;8.30;99.90;;;;;;2093325;28;20273;-65
2023/04/24 02:16:47;;;;;;;0.30;0.30;;;8.20;99.90;;;;;;2092899;28;20354;-66
2023/04/24 02:17:48;;;;;;;0.20;0.20;;;8.30;99.90;;;;;;2092469;28;20241;-66
2023/04/24 02:18:48;;;;;;;0.30;0.30;;;8.30;99.90;;;;;;2075266;28;20251;-65
2023/04/24 02:19:49;;;;;;;0.30;0.30;;;8.40;99.90;;;;;;2075589;28;20677;-66
2023/04/24 02:20:51;;;;;;;0.30;0.30;;;8.30;99.90;;;;;;2075400;28;20242;-64
2023/04/24 02:21:53;;;;;;;0.30;0.30;;;8.20;99.90;;;;;;2066857;28;20239;-66
2023/04/24 02:22:53;;;;;;;0.28;0.28;;;8.20;99.90;;;;;;2067996;28;20235;-66
2023/04/24 02:23:55;;;;;;;0.30;0.30;;;8.20;99.90;;;;;;2074781;28;20654;-66
2023/04/24 02:24:56;;;;;;;0.40;0.40;;;8.10;99.90;;;;;;2083758;28;20311;-66
2023/04/24 02:25:57;;;;;;;0.30;0.30;;;8.10;99.90;;;;;;2083516;28;20722;-67
2023/04/24 02:26:58;;;;;;;0.40;0.40;;;8.10;99.90;;;;;;2092586;28;20289;-65
2023/04/24 02:27:58;;;;;;;0.30;0.30;;;8.10;99.90;;;;;;2092685;28;20339;-65
2023/04/24 02:29:00;;;;;;;0.30;0.30;;;8.10;99.90;;;;;;2083815;28;20224;-68
2023/04/24 02:30:01;;;;;;;0.30;0.30;;;8.00;99.90;;;;;;2075011;28;20224;-69
2023/04/24 02:31:02;;;;;;;0.25;0.25;;;8.10;99.90;;;;;;2084417;28;20226;-67
2023/04/24 02:32:03;;;;;;;0.30;0.30;;;8.10;99.90;;;;;;2091335;28;20307;-66
2023/04/24 02:33:04;;;;;;;0.30;0.30;;;8.20;99.90;;;;;;2091669;28;20184;-66
2023/04/24 02:34:05;;;;;;;0.40;0.40;;;8.20;99.90;;;;;;2092111;28;20668;-66
2023/04/24 02:35:06;;;;;;;0.30;0.30;;;8.20;99.90;;;;;;2082851;28;20188;-66
2023/04/24 02:36:07;;;;;;;0.40;0.40;;;8.20;99.90;;;;;;2083431;28;20190;-67
2023/04/24 02:37:08;;;;;;;0.30;0.30;;;8.20;99.90;;;;;;2074942;28;20205;-66
2023/04/24 02:38:08;;;;;;;0.30;0.30;;;8.20;99.90;;;;;;2066377;28;20657;-66
2023/04/24 02:39:09;;;;;;;0.30;0.30;;;8.20;99.90;;;;;;2071359;28;20220;-66
2023/04/24 02:40:10;;;;;;;0.30;0.30;;;8.20;99.90;;;;;;2078760;28;20211;-65
2023/04/24 02:41:11;;;;;;;0.23;0.23;;;8.20;99.90;;;;;;2089221;28;20554;-66
2023/04/24 02:42:12;;;;;;;0.30;0.30;;;8.20;99.90;;;;;;2092261;28;20648;-67
2023/04/24 02:43:13;;;;;;;0.40;0.40;;;8.20;99.90;;;;;;2092090;28;20286;-67
2023/04/24 02:44:14;;;;;;;0.35;0.35;;;8.20;99.90;;;;;;2092082;28;20203;-66
2023/04/24 02:45:16;;;;;;;0.30;0.30;;;8.30;99.90;;;;;;2092472;28;20662;-66
2023/04/24 02:46:20;;;;;;;0.30;0.30;;;8.20;99.90;;;;;;2092544;28;20714;-66
2023/04/24 02:47:21;;;;;;;0.30;0.30;;;8.20;99.90;;;;;;2092501;28;20347;-66
2023/04/24 02:48:21;;;;;;;0.30;0.30;;;8.30;99.90;;;;;;2092701;28;20256;-66
2023/04/24 02:49:22;;;;;;;0.30;0.30;;;8.40;99.90;;;;;;2089193;28;20225;-67
2023/04/24 02:50:23;;;;;;;0.30;0.30;;;8.30;99.90;;;;;;2074290;28;20374;-66
2023/04/24 02:51:25;;;;;;;0.30;0.30;;;8.40;99.90;;;;;;2075295;28;20271;-66
2023/04/24 02:52:25;;;;;;;0.30;0.30;;;8.30;99.90;;;;;;2089215;28;21165;-66
2023/04/24 02:53:29;;;;;;;0.30;0.30;;;8.30;99.90;;;;;;2091468;28;20231;-65
2023/04/24 02:54:30;;;;;;;0.30;0.30;;;8.30;99.90;;;;;;2092074;28;20261;-66
2023/04/24 02:55:31;;;;;;;0.40;0.40;;;8.10;99.90;;;;;;2074929;28;20834;-67
2023/04/24 02:56:32;;;;;;;0.37;0.37;;;8.20;99.90;;;;;;2074867;28;20228;-67
2023/04/24 02:57:33;;;;;;;0.30;0.30;;;8.10;99.90;;;;;;2091488;28;20412;-66
2023/04/24 02:58:35;;;;;;;0.30;0.30;;;8.00;99.90;;;;;;2083353;28;20252;-65
2023/04/24 02:59:36;;;;;;;0.25;0.25;;;8.00;99.90;;;;;;2071256;28;20584;-67
2023/04/24 03:00:36;;;;;;;0.20;0.20;;;8.00;99.90;;;;;;2079774;28;20231;-65
2023/04/24 03:01:39;;;;;;;0.30;0.30;;;8.00;99.90;;;;;;2091892;28;20261;-66
2023/04/24 03:02:40;;;;;;;0.20;0.20;;;8.00;99.90;;;;;;2083437;28;20219;-68
2023/04/24 03:03:40;;;;;;;0.30;0.30;;;8.00;99.90;;;;;;2067688;28;20264;-66
2023/04/24 03:04:42;;;;;;;0.30;0.30;;;8.10;99.90;;;;;;2083192;28;20255;-66
2023/04/24 03:05:43;;;;;;;0.68;0.68;;;8.00;99.90;;;;;;2091204;28;20219;-66
2023/04/24 03:06:44;;;;;;;0.37;0.37;;;7.90;99.90;;;;;;2084156;28;20725;-66
2023/04/24 03:07:45;;;;;;;0.40;0.40;;;7.90;99.90;;;;;;2083359;28;20552;-65
2023/04/24 03:08:46;;;;;;;0.30;0.30;;;7.90;99.90;;;;;;2082519;28;20286;-65
2023/04/24 03:09:47;;;;;;;0.30;0.30;;;7.90;99.90;;;;;;2074862;28;20696;-65
2023/04/24 03:10:48;;;;;;;0.20;0.20;;;7.90;99.90;;;;;;2083969;28;20285;-66
2023/04/24 03:11:49;;;;;;;0.30;0.30;;;7.90;99.90;;;;;;2092609;28;20609;-66
2023/04/24 03:12:50;;;;;;;0.30;0.30;;;8.00;99.90;;;;;;2083447;28;20619;-66
2023/04/24 03:13:53;;;;;;;0.40;0.40;;;8.10;99.90;;;;;;2066174;28;20259;-66
2023/04/24 03:14:54;;;;;;;0.30;0.30;;;8.10;99.90;;;;;;2083262;28;20245;-66
2023/04/24 03:15:54;;;;;;;0.37;0.37;;;8.10;99.90;;;;;;2090822;28;20599;-66
2023/04/24 03:16:56;;;;;;;0.20;0.20;;;8.10;99.90;;;;;;2092181;28;20291;-67
2023/04/24 03:17:57;;;;;;;0.30;0.30;;;8.10;99.90;;;;;;2091301;28;20220;-65
2023/04/24 03:18:59;;;;;;;0.30;0.30;;;8.10;99.90;;;;;;2092070;28;20276;-65
2023/04/24 03:19:59;;;;;;;0.20;0.20;;;8.00;99.90;;;;;;2079719;28;20223;-66
2023/04/24 03:21:01;;;;;;;0.30;0.30;;;8.00;99.90;;;;;;2074031;28;20278;-65
2023/04/24 03:22:03;;;;;;;0.30;0.30;;;8.00;99.90;;;;;;2081232;28;20297;-67
2023/04/24 03:23:04;;;;;;;0.30;0.30;;;7.90;99.90;;;;;;2092063;28;20196;-66
2023/04/24 03:24:09;;;;;;;0.20;0.20;;;8.00;99.90;;;;;;2092069;28;20193;-66
2023/04/24 03:25:10;;;;;;;0.30;0.30;;;7.90;99.90;;;;;;2083137;28;20437;-66
2023/04/24 03:26:12;;;;;;;0.30;0.30;;;7.90;99.90;;;;;;2083824;28;20187;-65
2023/04/24 03:27:14;;;;;;;0.28;0.28;;;7.90;99.90;;;;;;2092337;28;20632;-65
2023/04/24 03:28:15;;;;;;;0.20;0.20;;;7.90;99.90;;;;;;2091908;28;20207;-66
2023/04/24 03:29:16;;;;;;;0.40;0.40;;;7.90;99.90;;;;;;2092594;28;20281;-66
2023/04/24 03:30:18;;;;;;;0.20;0.20;;;7.90;99.90;;;;;;2092437;28;20229;-65
2023/04/24 03:31:21;;;;;;;0.20;0.20;;;8.00;99.90;;;;;;2092268;28;20188;-65
2023/04/24 03:32:23;;;;;;;0.30;0.30;;;8.00;99.90;;;;;;2091970;28;20250;-66
2023/04/24 03:33:23;;;;;;;0.30;0.30;;;8.10;99.90;;;;;;2092110;28;20229;-66
2023/04/24 03:34:24;;;;;;;0.30;0.30;;;8.20;99.90;;;;;;2083188;28;20227;-69
2023/04/24 03:35:26;;;;;;;0.30;0.30;;;8.20;99.90;;;;;;2075761;28;20772;-66
2023/04/24 03:36:27;;;;;;;0.28;0.28;;;8.20;99.90;;;;;;2066443;28;20756;-66
2023/04/24 03:37:29;;;;;;;0.30;0.30;;;8.10;99.90;;;;;;2066749;28;20280;-67
2023/04/24 03:38:30;;;;;;;0.20;0.20;;;8.00;99.90;;;;;;2091729;28;20306;-66
2023/04/24 03:39:30;;;;;;;0.30;0.30;;;8.00;99.90;;;;;;2091599;28;20230;-66
2023/04/24 03:40:33;;;;;;;0.30;0.30;;;7.90;99.90;;;;;;2082997;28;20231;-68
2023/04/24 03:41:34;;;;;;;0.30;0.30;;;7.90;99.90;;;;;;2075521;28;20235;-66
2023/04/24 03:42:35;;;;;;;0.30;0.30;;;7.90;99.90;;;;;;2075661;28;20255;-66
2023/04/24 03:43:36;;;;;;;0.30;0.30;;;7.90;99.90;;;;;;2075378;28;20228;-70
2023/04/24 03:44:37;;;;;;;0.30;0.30;;;8.00;99.90;;;;;;2083026;28;20264;-66
2023/04/24 03:45:38;;;;;;;0.30;0.30;;;8.00;99.90;;;;;;2090711;28;20231;-66
2023/04/24 03:46:40;;;;;;;0.20;0.20;;;8.00;99.90;;;;;;2088808;28;20263;-66
2023/04/24 03:47:40;;;;;;;0.30;0.30;;;8.00;99.90;;;;;;2086206;28;20227;-71
2023/04/24 03:48:42;;;;;;;0.30;0.30;;;8.10;99.90;;;;;;2087423;28;20777;-69
2023/04/24 03:49:43;;;;;;;0.40;0.40;;;8.10;99.90;;;;;;2086081;28;20882;-66
2023/04/24 03:50:45;;;;;;;0.30;0.30;;;8.10;99.90;;;;;;2087073;28;20273;-66
2023/04/24 03:51:46;;;;;;;0.30;0.30;;;8.20;99.90;;;;;;2086593;28;20301;-67
2023/04/24 03:52:47;;;;;;;0.30;0.30;;;8.20;99.90;;;;;;2095213;28;20788;-66
2023/04/24 03:53:49;;;;;;;0.30;0.30;;;8.10;99.90;;;;;;2095761;28;20238;-64
2023/04/24 03:54:50;;;;;;;1.50;0.70;;;8.00;99.90;;;;;;2086826;28;20286;-66
2023/04/24 03:55:52;;;;;;;1.80;1.65;;;8.00;99.90;;;;;;2076198;28;20318;-66
2023/04/24 03:56:54;;;;;;;1.70;1.20;;;8.00;99.90;;;;;;2082493;28;20228;-66
2023/04/24 03:57:54;;;;;;;2.13;0.80;;;8.00;99.90;;;;;;2073801;28;20739;-65
2023/04/24 03:58:57;;;;;;;1.27;1.17;;;8.00;99.90;;;;;;2082671;28;20227;-66
2023/04/24 03:59:58;;;;;;;1.75;0.90;;;8.00;99.90;;;;;;2091007;28;20280;-65
2023/04/24 04:01:00;;;;;;;1.30;1.07;;;8.00;99.90;;;;;;2091730;28;20238;-66
2023/04/24 04:02:01;;;;;;;2.15;0.90;;;8.00;99.90;;;;;;2090823;28;20243;-68
2023/04/24 04:03:01;;;;;;;1.73;1.43;;;7.90;99.90;;;;;;2082622;28;20204;-69
2023/04/24 04:04:03;;;;;;;1.30;1.20;;;7.90;99.90;;;;;;2082931;28;20224;-66
2023/04/24 04:05:04;;;;;;;6.38;6.07;;;7.90;99.90;;;;;;2083290;28;20732;-69
2023/04/24 04:06:06;;;;;;;1.75;1.65;;;7.80;99.90;;;;;;2082821;28;20246;-66
2023/04/24 04:07:07;;;;;;;1.17;1.10;;;7.80;99.90;;;;;;2082730;28;20590;-68
2023/04/24 04:08:12;;;;;;;1.27;1.17;;;7.70;99.90;;;;;;2083194;28;20215;-65
2023/04/24 04:09:13;;;;;;;1.10;0.90;;;7.70;99.90;;;;;;2083242;28;20246;-66
2023/04/24 04:10:14;;;;;;;1.47;1.10;;;7.80;99.90;;;;;;2074605;28;20203;-68
2023/04/24 04:11:15;;;;;;;1.43;1.13;;;7.80;99.90;;;;;;2082817;28;20182;-69
2023/04/24 04:12:17;;;;;;;0.80;0.80;;;7.80;99.90;;;;;;2091586;28;20175;-65
2023/04/24 04:13:18;;;;;;;2.28;1.00;;;7.80;99.90;;;;;;2074835;28;20188;-66
2023/04/24 04:14:21;;;;;;;1.85;1.02;;;7.80;99.90;;;;;;2065806;28;20197;-66
2023/04/24 04:15:21;;;;;;;1.40;1.00;;;7.90;99.90;;;;;;2083297;28;20252;-67
2023/04/24 04:16:23;;;;;;;2.50;1.50;;;7.90;99.90;;;;;;2091966;28;20257;-65
2023/04/24 04:17:23;;;;;;;1.00;0.90;;;7.80;99.90;;;;;;2087043;28;20560;-66
2023/04/24 04:18:24;;;;;;;0.80;0.80;;;7.80;99.90;;;;;;2091078;28;20230;-66
2023/04/24 04:19:25;;;;;;;1.25;0.70;;;7.80;99.90;;;;;;2091717;28;20263;-67
2023/04/24 04:20:26;;;;;;;1.80;0.90;;;7.90;99.90;;;;;;2082925;28;20227;-66
2023/04/24 04:21:26;;;;;;;1.50;0.90;;;7.90;99.90;;;;;;2082283;28;20235;-66
2023/04/24 04:22:27;;;;;;;2.03;1.53;;;7.90;99.90;;;;;;2074007;28;20712;-66
2023/04/24 04:23:28;;;;;;;1.17;1.07;;;7.90;99.90;;;;;;2074393;28;20237;-65
2023/04/24 04:24:29;;;;;;;1.67;1.47;;;7.90;99.90;;;;;;2074857;28;20235;-65
2023/04/24 04:25:29;;;;;;;5.07;4.77;;;7.90;99.90;;;;;;2074879;28;20249;-65
2023/04/24 04:26:32;;;;;;;51.27;48.67;;;7.80;99.90;;;;;;2075189;28;20235;-67
2023/04/24 04:27:33;;;;;;;6.63;6.25;;;7.30;99.90;;;;;;2083070;28;20221;-65
2023/04/24 04:28:35;;;;;;;18.83;17.67;;;6.90;99.90;;;;;;2083047;28;21388;-65
2023/04/24 04:29:36;;;;;;;8.55;8.05;;;6.60;99.90;;;;;;2083537;28;20342;-66
2023/04/24 04:30:38;;;;;;;25.20;23.73;;;6.30;99.90;;;;;;2090773;28;20261;-66
2023/04/24 04:31:38;;;;;;;23.13;21.75;;;6.00;99.90;;;;;;2090626;28;20255;-65
2023/04/24 04:32:39;;;;;;;8.20;7.60;;;5.80;99.90;;;;;;2082613;28;20722;-66
2023/04/24 04:33:40;;;;;;;3.93;3.63;;;5.70;99.90;;;;;;2074510;28;20290;-66
2023/04/24 04:34:40;;;;;;;6.10;2.47;;;5.60;99.90;;;;;;2082538;28;20784;-65
2023/04/24 04:35:42;;;;;;;4.67;4.20;;;5.60;99.90;;;;;;2091485;28;20228;-66
2023/04/24 04:36:44;;;;;;;9.57;5.45;;;5.60;99.90;;;;;;2082521;28;20693;-66
2023/04/24 04:37:45;;;;;;;6.63;6.07;;;5.60;99.90;;;;;;2083014;28;20243;-65
2023/04/24 04:38:46;;;;;;;3.67;2.33;;;5.50;99.90;;;;;;2091820;28;20224;-66
2023/04/24 04:39:46;;;;;;;3.03;2.73;;;5.50;99.90;;;;;;2091629;28;20744;-66
2023/04/24 04:40:47;;;;;;;2.80;2.40;;;5.50;99.90;;;;;;2091430;28;20311;-69
2023/04/24 04:41:48;;;;;;;3.00;2.10;;;5.50;99.90;;;;;;2083000;28;20252;-66
2023/04/24 04:42:52;;;;;;;3.78;3.45;;;5.40;99.90;;;;;;2066526;28;20818;-66
2023/04/24 04:43:54;;;;;;;3.90;3.50;;;5.50;99.90;;;;;;2083427;28;20676;-65
2023/04/24 04:44:57;;;;;;;2.10;1.80;;;5.50;99.90;;;;;;2091438;28;20246;-66
2023/04/24 04:45:58;;;;;;;2.50;2.13;;;5.40;99.90;;;;;;2074053;28;20263;-66
2023/04/24 04:47:00;;;;;;;5.18;4.82;;;5.40;99.90;;;;;;2083245;28;20255;-68
2023/04/24 04:48:02;;;;;;;2.80;1.90;;;5.50;99.90;;;;;;2081889;28;20599;-68
2023/04/24 04:49:04;;;;;;;2.08;1.60;;;5.40;99.90;;;;;;2082271;28;20645;-68
2023/04/24 04:50:05;;;;;;;2.80;2.05;;;5.50;99.90;;;;;;2072280;28;20205;-66
2023/04/24 04:51:06;;;;;;;4.32;2.15;;;5.60;99.90;;;;;;2072335;28;20630;-66
2023/04/24 04:52:06;;;;;;;2.23;2.00;;;5.70;99.90;;;;;;2083480;28;20331;-67
2023/04/24 04:53:07;;;;;;;2.67;2.00;;;5.70;99.90;;;;;;2076383;28;20209;-67
2023/04/24 04:54:08;;;;;;;5.13;2.40;;;5.70;99.90;;;;;;2076523;28;20197;-67
2023/04/24 04:55:09;;;;;;;3.00;2.08;;;5.70;99.90;;;;;;2083776;28;20203;-67
2023/04/24 04:56:10;;;;;;;3.50;2.07;;;5.80;99.90;;;;;;2076065;28;20574;-67
2023/04/24 04:57:10;;;;;;;3.27;2.43;;;5.80;99.90;;;;;;2076063;28;20273;-68
2023/04/24 04:58:13;;;;;;;3.60;2.23;;;5.90;99.90;;;;;;2083729;28;20273;-66
2023/04/24 04:59:14;;;;;;;2.60;2.03;;;5.90;99.90;;;;;;2093096;28;20580;-67
2023/04/24 05:00:15;;;;;;;2.65;2.13;;;6.00;99.90;;;;;;2092599;28;20187;-67
2023/04/24 05:01:17;;;;;;;4.20;2.23;;;6.00;99.90;;;;;;2092914;28;20682;-67
2023/04/24 05:02:17;;;;;;;3.38;1.92;;;6.10;99.90;;;;;;2093241;28;20187;-66
2023/04/24 05:03:18;;;;;;;2.50;1.80;;;6.00;99.90;;;;;;2091195;28;20191;-66
2023/04/24 05:04:20;;;;;;;3.43;2.27;;;6.00;99.90;;;;;;2092319;28;20258;-66
2023/04/24 05:05:21;;;;;;;3.20;2.85;;;6.00;99.90;;;;;;2091955;28;20240;-67
2023/04/24 05:06:21;;;;;;;2.70;2.10;;;6.00;99.90;;;;;;2080774;28;20320;-67
2023/04/24 05:07:22;;;;;;;3.23;2.23;;;6.00;99.90;;;;;;2081679;28;20320;-67
2023/04/24 05:08:23;;;;;;;3.40;2.20;;;6.00;99.90;;;;;;2092873;28;20239;-67
2023/04/24 05:09:27;;;;;;;3.97;2.10;;;6.00;99.90;;;;;;2093020;28;20732;-68
2023/04/24 05:10:27;;;;;;;2.30;1.95;;;6.10;99.90;;;;;;2092798;28;20236;-67
2023/04/24 05:11:29;;;;;;;2.03;1.80;;;6.10;99.90;;;;;;2092992;28;20270;-67
2023/04/24 05:12:30;;;;;;;3.60;2.10;;;6.20;99.90;;;;;;2093226;28;20612;-67
2023/04/24 05:13:31;;;;;;;2.50;2.00;;;6.20;99.90;;;;;;2093473;28;20290;-68
2023/04/24 05:14:32;;;;;;;2.47;1.90;;;6.30;99.90;;;;;;2092959;28;20711;-67
2023/04/24 05:15:33;;;;;;;6.70;2.17;;;6.40;99.90;;;;;;2084311;28;20806;-67
2023/04/24 05:16:34;;;;;;;2.63;2.42;;;6.40;99.90;;;;;;2084245;28;20774;-67
2023/04/24 05:17:35;;;;;;;2.72;2.53;;;6.50;99.90;;;;;;2083915;28;20238;-67
2023/04/24 05:18:35;;;;;;;2.70;2.30;;;6.40;99.90;;;;;;2083808;28;20234;-68
2023/04/24 05:19:38;;;;;;;2.87;2.20;;;6.50;99.90;;;;;;2089467;28;20613;-67
2023/04/24 05:20:39;;;;;;;2.42;2.13;;;6.60;99.90;;;;;;2092806;28;20770;-67
2023/04/24 05:21:43;;;;;;;3.00;2.40;;;6.70;99.90;;;;;;2092821;28;20311;-67
2023/04/24 05:22:43;;;;;;;2.35;2.05;;;6.70;99.90;;;;;;2082851;28;20682;-67
2023/04/24 05:23:45;;;;;;;4.13;2.23;;;6.70;99.90;;;;;;2083869;28;20217;-67
2023/04/24 05:24:47;;;;;;;2.75;2.22;;;6.90;99.90;;;;;;2089101;28;20227;-64